Etusivu
METAR-TAF:

METAR-TAF

Lentoasemat :

Lynden Pindlingin kansainvälinen lentoasema

Nassau, Bahama

Leveyspiiri: 25-03N, Pituuspiiri: 077-28W, korkeus merenpinnasta: 3 m

Tämänhetkinen sää

Tämä raportti tehtiin 37 minuuttia sitten, kello 17.00 UTC
Tuuli 8 kn etelästä, vaihdellen kaakon ja etelän/lounaan välillä
Lämpötila 31°C
Kosteus 66%
Ilmanpaine 1019 hPa
Näkyvyys 10 km tai enemmän
Hajanaisia pilviä 2500 ft:n korkeudessa

METAR: MYNN 201700Z 17008KT 140V210 9999 SCT025 31/24 A3010

Aika: 13:37 (17:37 UTC)

Sääennuste

Tämä raportti tehtiin 6 tuntia ja 47 minuuttia sitten, kello 10.50 UTC
Ennuste voimassa 20. päivästä klo 12 UTC - 21. päivään klo 12 UTC
Tuuli 6 kn etelästä/kaakosta
Näkyvyys 10 km tai enemmän
Hajanaisia pilviä 2000 ft:n korkeudessa

TAF: MYNN 201050Z 2012/2112 16006KT 9999 SCT020

Säähavainnot ja -ennusteet yli 4000 lentoasemalta (METAR- ja TAF-raportit).

Käytössä olevat sääasemat on merkitty karttaan keltaisilla ja punaisilla pisteillä.

Aseta hiiri pisteen päälle nähdäksesi sääaseman nimen.

Klikkaa sitten nähdäksesi säähavainnot ja -ennusteet.

Kartan vaihtaminen: klikkaa mustalla rastilla varustettuja vihreitä pisteitä, niin voit zoomata sisään; viivalla varustettua vihreää pistettä, niin voit zoomata ulos tai vihreitä nuolia, niin pääset viereisille kartoille.


METAR-TAF: